map of SPG home
SPG - Airport
Location
City:  St. Petersburg, Florida, United States
Name:Albert Whitted Airport
ICAO:KSPG
IATA:SPG
FAA LID:SPG

Details
Type:Airport (Airfield)
Use:Public/Civil
Latitude:2745'54"N (27.765111)
Longitude:8237'37"W (-82.626971)
Datum:WGS 1984
Elevation:6 ft (2 m)
Variation:5.47W (WMM2015 magnetic declination)
-0.10 annual change
Runways:2
Longest:3677 × 75 ft (1121 × 23 m), paved

Time
Time Zone:UTC-5 (DST-4)
Local Time:

Weather
METAR:KSPG 152053Z 31007KT 10SM CLR 23/15 A3005 RMK AO2 SLP176 T02280150 56004

Related Locations
Nearby:
Farthest:USL: 11452 mi / 18431 km
Useless Loop, WA, AU

Find:

   beyond  
but within

Other Information
Maps:
NOTAMs:
Links:
Sources:

  
flag of United States
flag of Florida
  

Airport Diagram

Airport diagram for SPG

Airport diagram PDF

Sectional Chart

Flight Planning
at skyvector.com

Satellite Image

Google Maps Satellite view

 

Copyright © 2004-2017 Karl L. Swartz. All rights reserved.
The Great Circle Mapper name and logo are trademarks of the Great Circle Mapper.
All other trademarks mentioned herein belong to their respective owners.
Please see credits for attibutions and further copyright information.

  Follow gcmap on Facebook Follow gcmap on Twitter Follow gcmap on Google+ GCmap on LinkedIn

hCard Microformat

Geo Microformat